Ana Sayfa
METAR-TAF:

METAR-TAF

Havaalanları :

Samsun Çarşamba Havalimanı

Samsun, Türkiye

Enlem: 41-15-15N, Boylam: 036-34-03E, yükseklik: 5 m

Güncel hava durumu gözlemi

Rapor saat 02:50 UTC de 49 dakika önce yapıldı.
Rüzgar güney/güneybatıdan 25 kt
Sıcaklık 20°C
Nem 17%
Basınç 1008 hPa
Görüş mesafesi 10 km veya daha fazla
1500 m altında bulut yok ve kümülonimbus yok

METAR: LTFH 270250Z 21025KT CAVOK 20/M06 Q1008 NOSIG

Saat: 06:39 (03:39 UTC)

Tahmin

Rapor saat 01:40 UTC de 1 saat ve 59 dakika önce yapıldı.
Ayın 27'si saat 03 UTC'den ayın 27'si saat 12 UTC'ye kadar geçerli Tahmin
Rüzgar güney/güneybatıdan 24 kt
Görüş mesafesi 10 km veya daha fazla
1500 m altında bulut yok ve kümülonimbus yok

TAF: LTFH 270140Z 2703/2712 20024KT CAVOK

4.000'den fazla havaalanı için hava durumu gözlemleri ve tahminleri (METAR ve TAF raporları).

Kullanılabilir istasyonlar harita üzerinde sarı ve kırmızı noktalarla gösterilir.

İstasyonun adını görmek için fareyi noktanın üzerinde gezdirin.

Sonrasında hava gözlem ve tahminlerini görmek için tıklayın.

Haritayı değiştirmek için: yaklaştırmak için siyah artı işaretli yeşil düğmeye ve uzaklaştırmak için de eksi işaretli düğmeye hızla tıklayın; bitişik haritalar için yeşil okları kullanın.


METAR-TAF: